Time;durP1;ratioP1;P1;durP2;ratioP2;P2;SDS_P1;SDS_P2;PMS_P1;PMS_P2;Temp;Humidity;BMP_temperature;BMP_pressure;BME280_temperature;BME280_humidity;BME280_pressure;Samples;Min_cycle;Max_cycle;Signal;HPM_P1;HPM_P2
2022/07/05 00:00:37;;;;;;;0.20;0.20;;;13.00;99.90;;;;;;5041051;27;88411;-45
2022/07/05 00:03:03;;;;;;;0.50;0.50;;;12.90;99.90;;;;;;5032574;22;90359;-34
2022/07/05 00:05:29;;;;;;;0.20;0.10;;;12.90;99.90;;;;;;4979971;28;89775;-33
2022/07/05 00:07:54;;;;;;;0.20;0.20;;;12.90;99.90;;;;;;4980619;28;89634;-34
2022/07/05 00:10:20;;;;;;;0.20;0.10;;;12.90;99.90;;;;;;4977324;28;90108;-32
2022/07/05 00:12:46;;;;;;;0.20;0.10;;;12.90;99.90;;;;;;4968565;28;89961;-37
2022/07/05 00:15:11;;;;;;;0.20;0.10;;;12.80;99.90;;;;;;4979182;28;90892;-37
2022/07/05 00:17:37;;;;;;;1.27;1.20;;;12.80;99.90;;;;;;4979951;28;89893;-36
2022/07/05 00:20:04;;;;;;;0.20;0.15;;;12.80;99.90;;;;;;4980230;28;89751;-37
2022/07/05 00:22:29;;;;;;;0.80;0.80;;;12.80;99.90;;;;;;4979835;28;89436;-34
2022/07/05 00:24:55;;;;;;;0.32;0.32;;;12.70;99.90;;;;;;4979467;28;91037;-38
2022/07/05 00:27:21;;;;;;;0.90;0.90;;;12.70;99.90;;;;;;4979572;28;89799;-35
2022/07/05 00:29:46;;;;;;;0.43;0.43;;;12.70;99.90;;;;;;4979324;28;90047;-38
2022/07/05 00:32:12;;;;;;;0.30;0.20;;;12.60;99.90;;;;;;4980147;28;89168;-36
2022/07/05 00:34:38;;;;;;;2.78;0.98;;;12.60;99.90;;;;;;4979284;28;88951;-34
2022/07/05 00:37:03;;;;;;;0.30;0.25;;;12.60;99.90;;;;;;4979505;28;89869;-36
2022/07/05 00:39:29;;;;;;;0.20;0.20;;;12.60;99.90;;;;;;4979403;28;89221;-37
2022/07/05 00:41:54;;;;;;;0.52;0.52;;;12.50;99.90;;;;;;4978169;28;89384;-36
2022/07/05 00:44:39;;;;;;;0.52;0.38;;;12.50;99.90;;;;;;4978204;28;90976;-36
2022/07/05 00:47:06;;;;;;;0.63;0.63;;;12.50;99.90;;;;;;4978698;28;90622;-36
2022/07/05 00:49:33;;;;;;;0.30;0.30;;;12.50;99.90;;;;;;4979760;28;89595;-36
2022/07/05 00:51:59;;;;;;;0.30;0.30;;;12.50;99.90;;;;;;4979494;28;88866;-35
2022/07/05 00:54:29;;;;;;;0.73;0.73;;;12.50;99.90;;;;;;4979317;28;90207;-34
2022/07/05 00:56:55;;;;;;;0.30;0.30;;;12.50;99.90;;;;;;4979573;28;89724;-35
2022/07/05 00:59:22;;;;;;;0.20;0.20;;;12.40;99.90;;;;;;4979646;28;88684;-34
2022/07/05 01:01:48;;;;;;;0.20;0.10;;;12.40;99.90;;;;;;4978882;28;88905;-37
2022/07/05 01:04:13;;;;;;;0.20;0.10;;;12.30;99.90;;;;;;4978709;28;90593;-36
2022/07/05 01:06:44;;;;;;;0.60;0.60;;;12.30;99.90;;;;;;4979847;28;88920;-36
2022/07/05 01:09:16;;;;;;;0.30;0.30;;;12.30;99.90;;;;;;4981014;28;88669;-35
2022/07/05 01:11:45;;;;;;;0.63;0.63;;;12.30;99.90;;;;;;4969256;28;89684;-39
2022/07/05 01:14:17;;;;;;;0.55;0.55;;;12.30;99.90;;;;;;4968838;28;90334;-38
2022/07/05 01:16:43;;;;;;;0.30;0.30;;;12.20;99.90;;;;;;4982253;28;90280;-37
2022/07/05 01:19:11;;;;;;;0.20;0.20;;;12.20;99.90;;;;;;4983199;28;87649;-36
2022/07/05 01:21:46;;;;;;;0.68;0.68;;;12.20;99.90;;;;;;4983145;28;90345;-35
2022/07/05 01:24:14;;;;;;;0.20;0.20;;;12.20;99.90;;;;;;4981478;28;90578;-35
2022/07/05 01:26:41;;;;;;;0.90;0.90;;;12.20;99.90;;;;;;4981665;28;89939;-38
2022/07/05 01:29:08;;;;;;;0.40;0.40;;;12.20;99.90;;;;;;4982894;28;89690;-36
2022/07/05 01:31:36;;;;;;;0.68;0.55;;;12.20;99.90;;;;;;4982853;28;88993;-35
2022/07/05 01:34:02;;;;;;;0.20;0.20;;;12.20;99.90;;;;;;4981779;28;89126;-35
2022/07/05 01:36:27;;;;;;;0.50;0.50;;;12.20;99.90;;;;;;4981971;28;90454;-37
2022/07/05 01:38:53;;;;;;;0.30;0.30;;;12.10;99.90;;;;;;4982610;28;88712;-35
2022/07/05 01:41:19;;;;;;;0.30;0.30;;;12.10;99.90;;;;;;4982138;28;87565;-35
2022/07/05 01:43:44;;;;;;;1.55;1.45;;;12.20;99.90;;;;;;4982806;28;90843;-35
2022/07/05 01:46:12;;;;;;;0.30;0.30;;;12.10;99.90;;;;;;4981353;28;89972;-36
2022/07/05 01:48:39;;;;;;;0.28;0.28;;;12.10;99.90;;;;;;4982148;28;87964;-38
2022/07/05 01:51:09;;;;;;;0.50;0.50;;;12.10;99.90;;;;;;4981713;28;87576;-34
2022/07/05 01:53:38;;;;;;;0.50;0.50;;;12.10;99.90;;;;;;4982869;28;90096;-35
2022/07/05 01:56:04;;;;;;;0.60;0.60;;;12.00;99.90;;;;;;4981803;28;90266;-37
2022/07/05 01:58:31;;;;;;;0.20;0.20;;;12.00;99.90;;;;;;4982434;28;89554;-34
2022/07/05 02:00:58;;;;;;;0.20;0.20;;;12.00;99.90;;;;;;4981605;28;87618;-36
2022/07/05 02:03:25;;;;;;;0.38;0.38;;;12.00;99.90;;;;;;4981709;28;90570;-35
2022/07/05 02:05:50;;;;;;;0.20;0.10;;;12.00;99.90;;;;;;4982230;28;90294;-34
2022/07/05 02:08:17;;;;;;;0.20;0.20;;;11.90;99.90;;;;;;4981830;28;87889;-35
2022/07/05 02:10:43;;;;;;;0.25;0.25;;;12.00;99.90;;;;;;4969513;28;89038;-37
2022/07/05 02:13:09;;;;;;;0.20;0.20;;;11.90;99.90;;;;;;4962054;28;91659;-35
2022/07/05 02:15:38;;;;;;;1.48;1.38;;;11.90;99.90;;;;;;4967675;28;90269;-39
2022/07/05 02:18:04;;;;;;;;;;;11.80;99.90;;;;;;4979741;28;88882;-38
2022/07/05 02:20:30;;;;;;;0.60;0.60;;;11.70;99.90;;;;;;4971958;28;87528;-33
2022/07/05 02:22:57;;;;;;;0.57;0.30;;;11.80;99.90;;;;;;4981003;28;88933;-33
2022/07/05 02:25:23;;;;;;;0.30;0.30;;;11.70;99.90;;;;;;4981538;28;89669;-34
2022/07/05 02:27:50;;;;;;;0.30;0.30;;;11.70;99.90;;;;;;4970023;28;88670;-34
2022/07/05 02:30:16;;;;;;;0.20;0.17;;;11.70;99.90;;;;;;4979717;28;87634;-34
2022/07/05 02:32:42;;;;;;;0.20;0.20;;;11.60;99.90;;;;;;4981998;28;90686;-35
2022/07/05 02:35:09;;;;;;;0.57;0.57;;;11.60;99.90;;;;;;4980853;28;90496;-35
2022/07/05 02:37:34;;;;;;;0.20;0.20;;;11.60;99.90;;;;;;4981760;28;88818;-34
2022/07/05 02:40:00;;;;;;;0.30;0.30;;;11.60;99.90;;;;;;4981446;28;88778;-35
2022/07/05 02:42:26;;;;;;;0.40;0.40;;;11.60;99.90;;;;;;4981736;28;90728;-36
2022/07/05 02:44:51;;;;;;;0.28;0.28;;;11.60;99.90;;;;;;4969062;28;89628;-36
2022/07/05 02:47:17;;;;;;;0.63;0.63;;;11.60;99.90;;;;;;4979470;28;88752;-33
2022/07/05 02:49:43;;;;;;;0.20;0.20;;;11.60;99.90;;;;;;4981364;28;89172;-35
2022/07/05 02:52:08;;;;;;;0.20;0.10;;;11.60;99.90;;;;;;4981707;28;90325;-33
2022/07/05 02:54:34;;;;;;;0.45;0.45;;;11.60;99.90;;;;;;4980807;28;90044;-32
2022/07/05 02:57:00;;;;;;;0.30;0.30;;;11.60;99.90;;;;;;4980403;28;88017;-36
2022/07/05 02:59:26;;;;;;;0.20;0.13;;;11.60;99.90;;;;;;4981153;28;88777;-36
2022/07/05 03:01:51;;;;;;;0.43;0.43;;;11.60;99.90;;;;;;4980571;28;90943;-36
2022/07/05 03:04:17;;;;;;;0.40;0.40;;;11.60;99.90;;;;;;4981637;28;90305;-34
2022/07/05 03:06:43;;;;;;;0.30;0.30;;;11.60;99.90;;;;;;4980792;28;88597;-34
2022/07/05 03:09:09;;;;;;;0.68;0.68;;;11.60;99.90;;;;;;4979656;28;89232;-34
2022/07/05 03:11:34;;;;;;;0.40;0.30;;;11.60;99.90;;;;;;4980957;28;90721;-35
2022/07/05 03:14:00;;;;;;;0.30;0.30;;;11.70;99.90;;;;;;4980494;28;91171;-35
2022/07/05 03:16:26;;;;;;;1.02;0.47;;;11.70;99.90;;;;;;4980959;28;88275;-34
2022/07/05 03:18:51;;;;;;;0.70;0.70;;;11.70;99.90;;;;;;4970823;28;90129;-35
2022/07/05 03:21:18;;;;;;;0.38;0.38;;;11.70;99.90;;;;;;4978384;28;90456;-33
2022/07/05 03:23:43;;;;;;;0.40;0.40;;;11.70;99.90;;;;;;4980705;28;89830;-37
2022/07/05 03:26:09;;;;;;;0.32;0.30;;;11.70;99.90;;;;;;4980811;28;87774;-35
2022/07/05 03:28:35;;;;;;;0.20;0.20;;;11.80;99.90;;;;;;4981081;28;88182;-36
2022/07/05 03:31:00;;;;;;;1.42;1.33;;;11.80;99.90;;;;;;4979870;28;90895;-36
2022/07/05 03:33:26;;;;;;;0.85;0.85;;;11.80;99.90;;;;;;4980962;28;89158;-33
2022/07/05 03:35:52;;;;;;;1.17;1.13;;;11.80;99.90;;;;;;4980381;28;87736;-34
2022/07/05 03:38:17;;;;;;;0.40;0.30;;;11.80;99.90;;;;;;4981229;28;89792;-35
2022/07/05 03:40:43;;;;;;;1.15;1.05;;;11.80;99.90;;;;;;4980286;28;91144;-34
2022/07/05 03:43:08;;;;;;;0.75;0.68;;;11.90;99.90;;;;;;4980457;28;89442;-34
2022/07/05 03:45:34;;;;;;;0.95;0.93;;;11.90;99.90;;;;;;4979365;28;88814;-35
2022/07/05 03:48:00;;;;;;;1.00;0.95;;;11.90;99.90;;;;;;4980254;28;88606;-35
2022/07/05 03:50:27;;;;;;;0.90;0.90;;;11.90;99.90;;;;;;4980923;28;90166;-35
2022/07/05 03:52:53;;;;;;;0.20;0.20;;;11.90;99.90;;;;;;4980236;28;89240;-34
2022/07/05 03:55:19;;;;;;;0.57;0.57;;;11.90;99.90;;;;;;4980865;28;89121;-36
2022/07/05 03:57:45;;;;;;;0.50;0.50;;;11.90;99.90;;;;;;4980707;28;88918;-36
2022/07/05 04:00:12;;;;;;;0.20;0.20;;;11.90;99.90;;;;;;4980134;28;90163;-34
2022/07/05 04:02:37;;;;;;;1.00;0.40;;;11.90;99.90;;;;;;4980385;28;91222;-35
2022/07/05 04:05:04;;;;;;;0.95;0.60;;;12.00;99.90;;;;;;4980814;28;88855;-33
2022/07/05 04:07:30;;;;;;;0.40;0.40;;;12.00;99.90;;;;;;4980151;28;87963;-34
2022/07/05 04:09:55;;;;;;;1.10;0.98;;;12.10;99.90;;;;;;4980470;28;90282;-35
2022/07/05 04:12:21;;;;;;;0.40;0.40;;;12.10;99.90;;;;;;4979741;28;90490;-36
2022/07/05 04:14:46;;;;;;;1.58;0.98;;;12.10;99.90;;;;;;4980660;28;89179;-34
2022/07/05 04:17:12;;;;;;;0.20;0.20;;;12.10;99.90;;;;;;4979531;28;88425;-36
2022/07/05 04:19:38;;;;;;;2.25;2.10;;;12.10;99.90;;;;;;4965836;28;90500;-34
2022/07/05 04:22:03;;;;;;;0.30;0.30;;;12.20;99.90;;;;;;4980099;28;91028;-35
2022/07/05 04:24:29;;;;;;;0.28;0.28;;;12.20;99.90;;;;;;4979704;28;87648;-33
2022/07/05 04:26:55;;;;;;;1.95;1.25;;;12.30;99.90;;;;;;4980204;28;87783;-34
2022/07/05 04:29:20;;;;;;;0.20;0.10;;;12.30;99.90;;;;;;4979700;28;90345;-37
2022/07/05 04:31:46;;;;;;;0.20;0.20;;;12.50;99.90;;;;;;4979852;28;89715;-35
2022/07/05 04:34:12;;;;;;;0.25;0.25;;;12.70;99.90;;;;;;4979241;28;88436;-34
2022/07/05 04:36:40;;;;;;;1.13;0.68;;;12.90;99.90;;;;;;4980489;28;88891;-36
2022/07/05 04:39:06;;;;;;;0.60;0.60;;;13.20;99.90;;;;;;4979656;28;90888;-35
2022/07/05 04:41:32;;;;;;;0.50;0.43;;;13.50;99.90;;;;;;4979462;28;90504;-36
2022/07/05 04:43:57;;;;;;;0.38;0.38;;;13.70;99.90;;;;;;4981460;28;87567;-36
2022/07/05 04:46:23;;;;;;;0.90;0.90;;;13.90;99.90;;;;;;4983615;28;89359;-34
2022/07/05 04:48:48;;;;;;;0.38;0.38;;;14.10;99.90;;;;;;4982843;28;90163;-36
2022/07/05 04:51:15;;;;;;;0.25;0.25;;;14.20;99.90;;;;;;4982769;28;90255;-36
2022/07/05 04:53:41;;;;;;;0.35;0.32;;;14.20;99.90;;;;;;4983013;28;88097;-36
2022/07/05 04:56:07;;;;;;;0.40;0.40;;;14.30;99.90;;;;;;4983159;28;89167;-38
2022/07/05 04:58:32;;;;;;;1.33;1.23;;;14.60;99.90;;;;;;4983843;28;88267;-36
2022/07/05 05:00:58;;;;;;;0.73;0.73;;;14.90;99.90;;;;;;4982475;28;90267;-35
2022/07/05 05:03:24;;;;;;;0.68;0.68;;;15.10;99.90;;;;;;4983955;28;89205;-36
2022/07/05 05:05:50;;;;;;;0.60;0.60;;;15.30;99.90;;;;;;4982695;28;89189;-35
2022/07/05 05:08:16;;;;;;;0.50;0.43;;;15.30;99.90;;;;;;4982297;28;90644;-38
2022/07/05 05:10:42;;;;;;;0.28;0.20;;;15.40;99.90;;;;;;4983753;28;89664;-33
2022/07/05 05:13:07;;;;;;;0.50;0.50;;;15.50;99.90;;;;;;4982997;28;88946;-34
2022/07/05 05:15:33;;;;;;;0.35;0.35;;;15.70;99.90;;;;;;4983043;28;89658;-37
2022/07/05 05:17:58;;;;;;;0.93;0.93;;;15.90;99.90;;;;;;4978564;28;90328;-36
2022/07/05 05:20:24;;;;;;;0.40;0.20;;;16.10;99.90;;;;;;4972835;28;90192;-35
2022/07/05 05:22:50;;;;;;;0.55;0.55;;;16.50;99.90;;;;;;4983276;28;89106;-34
2022/07/05 05:25:15;;;;;;;0.20;0.20;;;16.50;99.90;;;;;;4982466;28;88377;-36
2022/07/05 05:27:46;;;;;;;0.30;0.30;;;16.70;99.90;;;;;;4983084;28;91159;-35
2022/07/05 05:30:13;;;;;;;0.25;0.22;;;16.80;99.90;;;;;;4982529;28;90347;-36
2022/07/05 05:32:39;;;;;;;0.20;0.15;;;17.00;99.90;;;;;;4982734;28;88952;-36
2022/07/05 05:35:05;;;;;;;0.55;0.55;;;16.90;99.90;;;;;;4982704;28;88278;-37
2022/07/05 05:37:31;;;;;;;0.85;0.85;;;17.20;99.90;;;;;;4982680;28;92135;-35
2022/07/05 05:39:57;;;;;;;0.80;0.70;;;17.50;99.90;;;;;;4981833;28;90322;-37
2022/07/05 05:42:22;;;;;;;0.52;0.52;;;17.60;99.90;;;;;;4982672;28;89569;-36
2022/07/05 05:44:48;;;;;;;0.52;0.52;;;17.70;99.90;;;;;;4981253;28;89458;-38
2022/07/05 05:47:14;;;;;;;0.25;0.25;;;17.80;99.90;;;;;;4981228;28;90949;-35
2022/07/05 05:49:40;;;;;;;1.00;1.00;;;17.90;99.90;;;;;;4982987;28;89966;-34
2022/07/05 05:52:05;;;;;;;0.52;0.52;;;18.00;99.90;;;;;;4981985;28;89231;-36
2022/07/05 05:54:31;;;;;;;1.95;1.90;;;18.00;99.90;;;;;;4981754;28;88999;-34
2022/07/05 05:56:57;;;;;;;0.57;0.57;;;18.30;99.90;;;;;;4981830;28;90089;-35
2022/07/05 05:59:22;;;;;;;0.30;0.30;;;18.40;99.90;;;;;;4982765;28;90585;-35
2022/07/05 06:01:48;;;;;;;0.75;0.63;;;18.60;99.90;;;;;;4981666;28;88678;-33
2022/07/05 06:04:13;;;;;;;0.50;0.35;;;18.60;99.90;;;;;;4981848;28;87522;-34
2022/07/05 06:06:39;;;;;;;0.70;0.50;;;18.80;99.90;;;;;;4982384;28;90614;-35
2022/07/05 06:09:04;;;;;;;0.20;0.17;;;18.90;99.90;;;;;;4981628;28;89922;-37
2022/07/05 06:11:30;;;;;;;0.25;0.25;;;19.00;99.90;;;;;;4983103;28;88353;-36
2022/07/05 06:13:56;;;;;;;0.20;0.20;;;19.20;99.90;;;;;;4982270;28;87657;-35
2022/07/05 06:16:21;;;;;;;1.77;1.67;;;19.40;99.90;;;;;;4981769;28;90431;-33
2022/07/05 06:18:47;;;;;;;1.10;0.73;;;19.40;99.90;;;;;;4971070;28;91384;-34
2022/07/05 06:21:12;;;;;;;0.88;0.88;;;19.40;99.90;;;;;;4978677;28;88688;-37
2022/07/05 06:23:38;;;;;;;0.30;0.30;;;19.60;99.90;;;;;;4982670;28;87705;-36
2022/07/05 06:26:04;;;;;;;0.20;0.10;;;19.70;99.90;;;;;;4981549;28;90228;-35
2022/07/05 06:28:30;;;;;;;0.20;0.20;;;19.80;99.90;;;;;;4982583;28;90586;-36
2022/07/05 06:30:56;;;;;;;0.20;0.10;;;20.00;99.90;;;;;;4981580;28;88814;-36
2022/07/05 06:33:21;;;;;;;0.25;0.25;;;20.20;99.90;;;;;;4981631;28;88320;-36
2022/07/05 06:35:47;;;;;;;0.20;0.10;;;20.20;99.90;;;;;;4982135;28;90210;-34
2022/07/05 06:38:12;;;;;;;0.38;0.38;;;20.40;99.90;;;;;;4981226;28;89958;-36
2022/07/05 06:40:43;;;;;;;0.20;0.10;;;20.70;99.90;;;;;;4982030;28;90123;-37
2022/07/05 06:43:12;;;;;;;0.20;0.10;;;21.00;99.90;;;;;;4981182;28;89368;-38
2022/07/05 06:45:39;;;;;;;0.20;0.20;;;21.00;99.90;;;;;;4982268;28;90572;-39
2022/07/05 06:48:10;;;;;;;0.20;0.10;;;21.20;99.90;;;;;;4981196;28;90224;-38
2022/07/05 06:50:38;;;;;;;0.30;0.15;;;21.10;99.90;;;;;;4981880;28;90007;-34
2022/07/05 06:53:05;;;;;;;0.30;0.10;;;21.40;99.90;;;;;;4982092;28;89288;-34
2022/07/05 06:55:31;;;;;;;0.20;0.10;;;21.00;99.90;;;;;;4980660;28;89114;-36
2022/07/05 06:57:58;;;;;;;0.20;0.10;;;20.90;99.90;;;;;;4981615;28;89779;-38
2022/07/05 07:00:24;;;;;;;0.20;0.08;;;21.10;99.90;;;;;;4981500;28;87570;-35
2022/07/05 07:02:50;;;;;;;0.35;0.28;;;21.20;99.90;;;;;;4981063;28;89125;-35
2022/07/05 07:05:15;;;;;;;0.30;0.20;;;21.50;99.90;;;;;;4980930;28;90131;-35
2022/07/05 07:10:25;;;;;;;0.30;0.20;;;21.90;99.90;;;;;;4977969;28;88097;-36
2022/07/05 07:12:51;;;;;;;0.45;0.43;;;22.10;99.90;;;;;;4976182;28;88531;-36
2022/07/05 07:15:17;;;;;;;0.20;0.10;;;21.80;99.90;;;;;;4973329;28;91268;-36
2022/07/05 07:17:42;;;;;;;0.20;0.00;;;21.80;99.90;;;;;;4977084;28;89994;-35
2022/07/05 07:20:08;;;;;;;0.20;0.17;;;22.10;99.90;;;;;;4965654;28;87899;-36
2022/07/05 07:22:34;;;;;;;0.20;0.00;;;22.30;99.90;;;;;;4978588;28;88045;-36
2022/07/05 07:24:59;;;;;;;0.20;0.10;;;22.20;99.90;;;;;;4976851;28;92078;-36
2022/07/05 07:27:25;;;;;;;0.20;0.13;;;22.50;99.90;;;;;;4978150;28;90844;-38
2022/07/05 07:29:50;;;;;;;0.25;0.05;;;22.80;99.90;;;;;;4977534;28;89380;-35
2022/07/05 07:32:18;;;;;;;0.20;0.05;;;22.40;99.90;;;;;;4977541;28;88899;-38
2022/07/05 07:34:44;;;;;;;0.35;0.17;;;22.30;99.90;;;;;;4977789;28;90533;-39
2022/07/05 07:37:13;;;;;;;0.20;0.15;;;22.10;99.90;;;;;;4978169;28;89868;-36
2022/07/05 07:39:39;;;;;;;0.20;0.00;;;21.70;99.90;;;;;;4977994;28;89662;-38
2022/07/05 07:42:05;;;;;;;0.20;0.00;;;21.40;99.90;;;;;;4977525;28;90461;-36
2022/07/05 07:44:31;;;;;;;0.20;0.00;;;21.30;99.90;;;;;;4978741;28;90102;-36
2022/07/05 07:46:56;;;;;;;0.45;0.20;;;21.00;99.90;;;;;;4978094;28;89303;-37
2022/07/05 07:49:22;;;;;;;0.20;0.00;;;20.80;99.90;;;;;;4978226;28;89362;-38
2022/07/05 07:51:48;;;;;;;0.20;0.00;;;21.00;99.90;;;;;;4978002;28;88125;-37
2022/07/05 07:54:13;;;;;;;0.20;0.00;;;21.30;99.90;;;;;;4977643;28;88425;-35
2022/07/05 07:56:39;;;;;;;0.20;0.00;;;21.10;99.90;;;;;;4977377;28;90890;-34
2022/07/05 07:59:05;;;;;;;0.20;0.05;;;21.40;99.90;;;;;;4977921;28;88945;-36
2022/07/05 08:01:31;;;;;;;0.20;0.10;;;21.90;99.90;;;;;;4977837;28;87882;-36
2022/07/05 08:03:57;;;;;;;0.40;0.20;;;22.30;99.90;;;;;;4977370;28;90440;-36
2022/07/05 08:06:22;;;;;;;0.30;0.30;;;22.20;99.90;;;;;;4977958;28;89519;-40
2022/07/05 08:08:48;;;;;;;0.63;0.20;;;22.70;99.90;;;;;;4976289;28;89852;-36
2022/07/05 08:11:14;;;;;;;0.20;0.00;;;22.50;99.90;;;;;;4977805;28;89127;-37
2022/07/05 08:13:41;;;;;;;0.20;0.08;;;22.70;99.90;;;;;;4977594;28;90612;-36
2022/07/05 08:16:08;;;;;;;0.20;0.08;;;22.70;99.90;;;;;;4977491;28;91127;-36
2022/07/05 08:21:37;;;;;;;0.20;0.10;;;22.60;99.50;;;;;;4980582;28;88976;-36
2022/07/05 08:24:05;;;;;;;0.30;0.20;;;23.00;99.90;;;;;;4980244;28;89725;-37
2022/07/05 08:26:31;;;;;;;0.20;0.00;;;22.60;99.90;;;;;;4979248;28;90640;-35
2022/07/05 08:29:01;;;;;;;0.47;0.47;;;22.10;99.90;;;;;;4982036;28;90154;-38
2022/07/05 08:31:28;;;;;;;0.60;0.60;;;21.70;99.90;;;;;;4981267;28;89355;-38
2022/07/05 08:33:54;;;;;;;0.20;0.00;;;21.50;99.90;;;;;;4980622;28;90185;-35
2022/07/05 08:36:20;;;;;;;0.45;0.45;;;21.40;99.90;;;;;;4980248;28;89426;-34
2022/07/05 08:38:46;;;;;;;0.28;0.17;;;21.20;99.90;;;;;;4981272;28;89551;-38
2022/07/05 08:41:12;;;;;;;0.20;0.10;;;21.60;99.90;;;;;;4979547;28;88538;-38
2022/07/05 08:43:41;;;;;;;0.28;0.20;;;21.70;99.90;;;;;;4980746;28;90726;-35
2022/07/05 08:46:10;;;;;;;0.20;0.00;;;21.80;99.90;;;;;;4980279;28;90081;-39
2022/07/05 08:48:43;;;;;;;0.20;0.00;;;21.40;99.90;;;;;;4981134;28;89886;-36
2022/07/05 08:51:20;;;;;;;0.20;0.00;;;21.20;99.90;;;;;;4980349;28;87863;-38
2022/07/05 08:53:47;;;;;;;0.20;0.10;;;20.80;99.90;;;;;;4979839;28;90638;-38
2022/07/05 08:56:13;;;;;;;0.22;0.13;;;20.70;99.90;;;;;;4980571;28;90022;-36
2022/07/05 08:58:40;;;;;;;0.43;0.40;;;20.50;99.90;;;;;;4980345;28;89532;-35
2022/07/05 09:01:08;;;;;;;0.32;0.32;;;20.30;99.90;;;;;;4980023;28;89791;-40
2022/07/05 09:03:38;;;;;;;0.20;0.00;;;20.20;99.90;;;;;;4978490;28;91370;-37
2022/07/05 09:06:08;;;;;;;0.20;0.10;;;20.40;99.90;;;;;;4980203;28;89534;-35
2022/07/05 09:08:39;;;;;;;0.35;0.35;;;21.00;99.90;;;;;;4980718;28;89256;-39
2022/07/05 09:11:11;;;;;;;0.40;0.32;;;21.70;99.90;;;;;;4979950;28;90221;-35
2022/07/05 09:13:39;;;;;;;0.20;0.10;;;22.20;99.90;;;;;;4979585;28;90232;-38
2022/07/05 09:16:05;;;;;;;0.20;0.10;;;22.50;99.90;;;;;;4979771;28;89743;-37
2022/07/05 09:18:41;;;;;;;0.20;0.05;;;22.60;99.90;;;;;;4972396;28;88179;-37
2022/07/05 09:21:23;;;;;;;0.20;0.00;;;22.80;93.90;;;;;;4975183;28;88099;-37
2022/07/05 09:24:04;;;;;;;0.20;0.00;;;22.80;90.30;;;;;;4978486;28;90187;-36
2022/07/05 09:26:38;;;;;;;0.20;0.05;;;23.10;92.80;;;;;;4980000;28;90196;-39
2022/07/05 09:29:09;;;;;;;0.20;0.00;;;22.50;91.30;;;;;;4979169;28;88555;-38
2022/07/05 09:31:37;;;;;;;0.20;0.00;;;21.80;99.30;;;;;;4980505;28;89579;-36
2022/07/05 09:34:10;;;;;;;0.28;0.20;;;21.60;99.90;;;;;;4978970;28;90596;-38
2022/07/05 09:36:57;;;;;;;0.20;0.00;;;21.30;99.90;;;;;;4979454;28;88585;-39
2022/07/05 09:39:29;;;;;;;0.20;0.00;;;21.10;99.90;;;;;;4980198;28;89997;-35
2022/07/05 09:42:20;;;;;;;0.20;0.10;;;21.00;99.90;;;;;;4979882;28;88185;-37
2022/07/05 09:44:54;;;;;;;0.40;0.20;;;20.90;99.90;;;;;;4978675;28;91213;-36
2022/07/05 09:47:27;;;;;;;0.20;0.00;;;20.80;99.90;;;;;;4979800;28;89589;-36
2022/07/05 09:50:04;;;;;;;0.20;0.00;;;21.00;99.90;;;;;;4979977;28;88645;-35
2022/07/05 09:52:34;;;;;;;0.20;0.10;;;21.70;99.90;;;;;;4980138;28;88715;-38
2022/07/05 09:55:06;;;;;;;0.20;0.20;;;21.60;99.90;;;;;;4979744;28;89040;-38
2022/07/05 09:57:34;;;;;;;0.20;0.10;;;21.30;99.90;;;;;;4979178;28;89962;-35
2022/07/05 10:00:01;;;;;;;0.20;0.00;;;21.00;99.90;;;;;;4979962;28;87627;-36
2022/07/05 10:02:44;;;;;;;0.20;0.00;;;21.10;99.90;;;;;;4978893;28;88189;-36
2022/07/05 10:05:25;;;;;;;0.20;0.00;;;21.70;99.90;;;;;;4980297;28;91261;-36
2022/07/05 10:07:52;;;;;;;0.20;0.05;;;22.30;97.10;;;;;;4979146;28;90063;-37
2022/07/05 10:10:19;;;;;;;0.20;0.00;;;22.70;88.50;;;;;;4979019;28;90118;-38
2022/07/05 10:12:49;;;;;;;0.80;0.45;;;22.60;87.90;;;;;;4979335;28;90622;-36
2022/07/05 10:15:28;;;;;;;0.20;0.10;;;22.30;85.50;;;;;;4979183;28;92475;-37
2022/07/05 10:18:02;;;;;;;0.20;0.10;;;21.90;95.60;;;;;;4977072;28;90209;-36
2022/07/05 10:20:34;;;;;;;0.20;0.10;;;21.70;99.90;;;;;;4969631;28;89537;-37
2022/07/05 10:23:06;;;;;;;0.20;0.08;;;21.60;99.90;;;;;;4979074;28;90063;-36
2022/07/05 10:25:34;;;;;;;0.20;0.00;;;21.20;99.90;;;;;;4979557;28;90339;-37
2022/07/05 10:28:01;;;;;;;0.20;0.00;;;20.80;99.90;;;;;;4979205;28;89945;-37
2022/07/05 10:30:27;;;;;;;0.20;0.00;;;20.90;99.90;;;;;;4979313;28;88595;-37
2022/07/05 10:32:54;;;;;;;0.20;0.10;;;20.70;99.90;;;;;;4978472;28;88497;-35
2022/07/05 10:35:21;;;;;;;0.90;0.90;;;20.50;99.90;;;;;;4979374;28;90872;-34
2022/07/05 10:37:47;;;;;;;0.20;0.00;;;20.50;99.90;;;;;;4979288;28;90111;-34
2022/07/05 10:40:14;;;;;;;0.52;0.52;;;20.30;99.90;;;;;;4993138;28;88545;-37
2022/07/05 10:42:54;;;;;;;0.20;0.10;;;20.40;99.90;;;;;;4978505;28;88395;-35
2022/07/05 10:45:31;;;;;;;0.20;0.00;;;20.40;99.90;;;;;;4978109;28;91475;-36
2022/07/05 10:48:19;;;;;;;0.55;0.55;;;20.40;99.90;;;;;;4978965;28;90152;-38
2022/07/05 10:50:48;;;;;;;0.35;0.35;;;20.70;99.90;;;;;;4977930;28;89059;-35
2022/07/05 10:53:16;;;;;;;0.20;0.00;;;21.00;99.90;;;;;;4979357;28;88491;-36
2022/07/05 10:55:53;;;;;;;0.20;0.10;;;21.00;99.90;;;;;;4978836;28;90424;-37
2022/07/05 10:58:50;;;;;;;0.20;0.00;;;20.90;99.90;;;;;;4977865;28;90174;-36
2022/07/05 11:01:36;;;;;;;0.20;0.00;;;20.80;99.90;;;;;;4972654;28;89040;-37
2022/07/05 11:04:02;;;;;;;0.23;0.23;;;20.70;99.90;;;;;;4978074;28;88866;-37
2022/07/05 11:06:29;;;;;;;0.20;0.10;;;20.40;99.90;;;;;;4978574;28;90279;-37
2022/07/05 11:09:02;;;;;;;0.20;0.03;;;20.40;99.90;;;;;;4978986;28;89518;-34
2022/07/05 11:11:41;;;;;;;0.52;0.52;;;20.40;99.90;;;;;;4979384;28;90080;-34
2022/07/05 11:14:22;;;;;;;0.20;0.10;;;20.40;99.90;;;;;;4979136;28;89636;-33
2022/07/05 11:17:08;;;;;;;0.50;0.50;;;20.40;99.90;;;;;;4971840;28;90298;-35
2022/07/05 11:19:34;;;;;;;0.20;0.20;;;20.40;99.90;;;;;;4964247;28;90055;-34
2022/07/05 11:22:03;;;;;;;0.20;0.00;;;20.40;99.90;;;;;;4978123;28;90074;-35
2022/07/05 11:24:33;;;;;;;0.22;0.22;;;20.40;99.90;;;;;;4978006;28;87988;-33
2022/07/05 11:27:00;;;;;;;0.30;0.20;;;20.40;99.90;;;;;;4977905;28;90847;-33
2022/07/05 11:29:46;;;;;;;0.20;0.10;;;20.50;99.90;;;;;;4790184;28;88436;-32
2022/07/05 11:37:14;;;;;;;0.35;0.30;;;20.50;99.90;;;;;;5039707;27;88410;-38
2022/07/05 11:39:45;;;;;;;0.28;0.22;;;20.50;99.90;;;;;;5029875;27;87577;-38
2022/07/05 11:42:21;;;;;;;0.20;0.10;;;20.80;99.90;;;;;;5014434;27;88992;-38
2022/07/05 11:44:50;;;;;;;0.20;0.05;;;20.80;99.90;;;;;;5014581;27;90859;-46
2022/07/05 11:48:03;;;;;;;0.20;0.05;;;20.90;99.90;;;;;;4832559;27;87832;-43
2022/07/05 11:50:33;;;;;;;0.20;0.10;;;21.50;99.90;;;;;;4908709;28;90402;-47
2022/07/05 11:53:02;;;;;;;0.20;0.00;;;21.70;99.90;;;;;;4977492;28;88252;-45
2022/07/05 11:55:29;;;;;;;0.22;0.22;;;21.80;99.90;;;;;;4974429;28;90188;-44
2022/07/05 11:57:56;;;;;;;0.20;0.10;;;21.50;99.90;;;;;;4975144;28;89596;-45
2022/07/05 12:00:36;;;;;;;0.95;0.73;;;21.70;99.90;;;;;;4934772;27;88227;-43
2022/07/05 12:03:11;;;;;;;0.20;0.20;;;21.40;99.90;;;;;;5017013;22;87726;-38
2022/07/05 12:05:37;;;;;;;0.20;0.05;;;21.40;99.90;;;;;;4953251;28;90376;-37
2022/07/05 12:08:03;;;;;;;0.20;0.20;;;21.40;99.90;;;;;;4973693;28;89492;-39
2022/07/05 12:13:13;;;;;;;0.20;0.10;;;21.80;99.90;;;;;;4962933;27;88342;-36
2022/07/05 12:15:39;;;;;;;0.20;0.00;;;21.70;99.90;;;;;;4941531;28;92107;-36
2022/07/05 12:18:08;;;;;;;0.40;0.35;;;21.80;99.90;;;;;;4989795;28;91082;-36
2022/07/05 12:20:36;;;;;;;0.28;0.10;;;22.10;99.90;;;;;;4975888;28;88509;-40
2022/07/05 12:23:01;;;;;;;0.20;0.05;;;22.00;99.90;;;;;;4974336;28;89113;-38
2022/07/05 12:25:29;;;;;;;0.25;0.25;;;22.30;99.90;;;;;;4953116;28;90404;-34
2022/07/05 12:27:57;;;;;;;0.20;0.10;;;22.10;99.90;;;;;;4971199;28;89661;-38
2022/07/05 12:30:23;;;;;;;1.33;1.23;;;22.20;99.90;;;;;;4974924;28;88144;-36
2022/07/05 12:58:02;;;;;;;9.63;2.42;;;22.50;71.20;;;;;;5018238;28;89893;-37
2022/07/05 13:00:27;;;;;;;6.38;1.30;;;22.50;66.20;;;;;;5016121;28;87864;-43
2022/07/05 13:02:55;;;;;;;1.20;1.10;;;22.40;72.50;;;;;;4961222;27;88775;-38
2022/07/05 13:05:23;;;;;;;1.70;0.95;;;22.50;70.80;;;;;;4924078;28;90280;-37
2022/07/05 13:07:51;;;;;;;1.05;1.05;;;22.50;71.70;;;;;;4955226;28;90224;-33
2022/07/05 13:10:19;;;;;;;5.63;1.60;;;22.60;68.50;;;;;;4955606;28;88727;-33
2022/07/05 13:12:47;;;;;;;5.22;1.20;;;22.40;70.40;;;;;;4956808;28;89685;-41
2022/07/05 13:15:13;;;;;;;1.15;0.90;;;22.30;74.10;;;;;;4955508;28;89603;-40
2022/07/05 13:17:41;;;;;;;11.55;1.92;;;22.20;73.90;;;;;;4953629;28;89499;-41
2022/07/05 13:20:07;;;;;;;;;;;22.20;74.00;;;;;;4943884;28;88356;-38
2022/07/05 13:22:32;;;;;;;8.02;1.20;;;22.10;79.60;;;;;;4957376;28;87694;-37
2022/07/05 13:24:58;;;;;;;3.53;1.00;;;22.00;90.80;;;;;;4920170;27;90171;-41
2022/07/05 13:27:24;;;;;;;1.75;1.27;;;21.90;95.80;;;;;;4936767;28;89462;-39
2022/07/05 13:29:49;;;;;;;2.55;1.67;;;21.70;98.60;;;;;;4936228;28;88174;-37